Time;durP1;ratioP1;P1;durP2;ratioP2;P2;SDS_P1;SDS_P2;PMS_P1;PMS_P2;Temp;Humidity;BMP_temperature;BMP_pressure;BME280_temperature;BME280_humidity;BME280_pressure;Samples;Min_cycle;Max_cycle;Signal;HPM_P1;HPM_P2
2022/04/11 00:01:43;;;;;;;6.80;1.50;;;23.50;48.50;;;;;;220740;1267;22520;-50
2022/04/11 00:06:47;;;;;;;3.50;2.10;;;23.50;48.40;;;;;;220906;1267;24280;-49
2022/04/11 00:11:51;;;;;;;3.20;1.40;;;23.50;48.20;;;;;;220743;1267;22942;-48
2022/04/11 00:16:55;;;;;;;7.20;2.00;;;23.60;48.10;;;;;;220479;1267;25544;-52
2022/04/11 00:21:58;;;;;;;11.80;2.60;;;23.70;48.20;;;;;;220722;1267;22741;-49
2022/04/11 00:27:02;;;;;;;3.80;1.50;;;23.70;48.20;;;;;;220709;1267;24425;-54
2022/04/11 00:32:07;;;;;;;4.80;1.50;;;23.70;47.70;;;;;;220834;1269;24255;-54
2022/04/11 00:37:10;;;;;;;2.50;1.20;;;23.80;47.50;;;;;;220269;1265;22549;-54
2022/04/11 00:42:15;;;;;;;5.60;1.60;;;23.80;47.40;;;;;;220570;1267;24235;-52
2022/04/11 00:47:19;;;;;;;4.80;1.80;;;23.90;47.20;;;;;;220881;1270;22574;-49
2022/04/11 00:52:24;;;;;;;3.80;1.40;;;23.80;47.20;;;;;;220945;1267;23464;-51
2022/04/11 00:57:36;;;;;;;3.40;1.30;;;23.80;47.40;;;;;;220784;1267;25387;-49
2022/04/11 01:02:45;;;;;;;2.80;1.30;;;23.70;47.90;;;;;;220685;1268;22580;-50
2022/04/11 01:07:51;;;;;;;3.70;1.40;;;23.60;47.60;;;;;;220517;1265;22610;-47
2022/04/11 01:12:54;;;;;;;5.00;1.70;;;23.60;47.80;;;;;;220766;1265;22681;-50
2022/04/11 01:18:00;;;;;;;3.60;1.60;;;23.50;47.80;;;;;;220570;1265;25367;-50
2022/04/11 01:23:05;;;;;;;3.60;1.40;;;23.40;47.50;;;;;;220405;1267;23018;-52
2022/04/11 01:28:09;;;;;;;7.10;1.30;;;23.40;48.00;;;;;;220733;1265;22568;-54
2022/04/11 01:33:16;;;;;;;2.30;1.10;;;23.30;48.10;;;;;;220784;1267;22583;-50
2022/04/11 01:38:20;;;;;;;4.10;1.50;;;23.40;48.00;;;;;;220819;1265;22692;-49
2022/04/11 01:43:25;;;;;;;2.90;1.30;;;23.60;47.80;;;;;;220539;1268;24280;-50
2022/04/11 01:48:30;;;;;;;2.50;1.20;;;23.70;47.30;;;;;;220648;1265;22583;-53
2022/04/11 01:53:33;;;;;;;4.70;1.80;;;23.80;47.20;;;;;;220570;1265;22559;-48
2022/04/11 01:58:37;;;;;;;3.00;1.20;;;23.90;47.00;;;;;;220401;1269;24339;-49
2022/04/11 02:03:42;;;;;;;3.10;1.10;;;24.00;47.20;;;;;;220420;1268;22642;-50
2022/04/11 02:08:46;;;;;;;4.30;1.40;;;24.00;46.70;;;;;;220598;1265;25256;-49
2022/04/11 02:13:51;;;;;;;3.60;1.40;;;24.00;46.60;;;;;;220692;1268;22534;-50
2022/04/11 02:18:55;;;;;;;2.60;1.30;;;23.90;46.80;;;;;;220657;1265;22748;-53
2022/04/11 02:23:59;;;;;;;4.60;1.20;;;23.70;47.00;;;;;;220532;1268;24275;-48
2022/04/11 02:29:02;;;;;;;2.40;1.30;;;23.70;47.30;;;;;;220597;1265;22536;-49
2022/04/11 02:34:06;;;;;;;3.40;1.10;;;23.50;47.50;;;;;;221072;1265;22617;-50
2022/04/11 02:39:10;;;;;;;2.90;1.10;;;23.30;47.90;;;;;;220924;1265;24425;-53
2022/04/11 02:44:14;;;;;;;3.70;1.30;;;23.20;48.00;;;;;;220766;1265;25646;-50
2022/04/11 02:49:19;;;;;;;2.50;1.10;;;23.20;48.50;;;;;;220583;1265;24060;-47
2022/04/11 02:54:30;;;;;;;3.00;1.20;;;23.10;48.30;;;;;;220959;1265;25190;-48
2022/04/11 02:59:35;;;;;;;2.60;1.20;;;23.00;48.50;;;;;;220549;1265;22622;-49
2022/04/11 03:04:40;;;;;;;3.80;1.30;;;22.90;48.80;;;;;;220674;1265;22561;-49
2022/04/11 03:09:52;;;;;;;4.10;1.30;;;22.80;48.80;;;;;;220591;1264;22571;-50
2022/04/11 03:14:57;;;;;;;2.40;1.30;;;22.80;49.00;;;;;;220464;1268;24418;-48
2022/04/11 03:20:01;;;;;;;2.70;1.10;;;22.80;49.10;;;;;;220690;1268;24251;-48
2022/04/11 03:25:07;;;;;;;4.20;1.20;;;22.60;49.20;;;;;;220450;1268;25387;-50
2022/04/11 03:30:12;;;;;;;3.50;1.00;;;22.60;49.00;;;;;;220853;1265;24399;-47
2022/04/11 03:35:16;;;;;;;2.70;1.20;;;22.50;49.50;;;;;;220985;1265;24294;-51
2022/04/11 03:40:20;;;;;;;2.10;1.30;;;22.40;49.60;;;;;;220967;1265;25317;-51
2022/04/11 03:45:25;;;;;;;4.00;1.40;;;22.40;50.10;;;;;;221081;1265;22544;-48
2022/04/11 03:50:29;;;;;;;2.50;1.20;;;22.30;50.00;;;;;;220733;1265;22576;-53
2022/04/11 03:55:33;;;;;;;2.70;1.30;;;22.30;50.00;;;;;;220638;1265;22705;-47
2022/04/11 04:00:37;;;;;;;4.10;1.20;;;22.50;49.90;;;;;;220735;1265;22569;-48
2022/04/11 04:05:52;;;;;;;3.10;1.20;;;22.90;48.90;;;;;;220864;1265;25247;-48
2022/04/11 04:11:00;;;;;;;2.80;1.30;;;23.10;48.50;;;;;;220552;1266;24270;-48
2022/04/11 04:16:12;;;;;;;3.80;1.40;;;23.30;47.90;;;;;;220823;1265;22547;-50
2022/04/11 04:21:18;;;;;;;3.30;0.90;;;23.40;47.50;;;;;;220514;1266;24348;-49
2022/04/11 04:26:23;;;;;;;2.80;1.10;;;23.40;47.40;;;;;;220763;1265;25471;-48
2022/04/11 04:31:27;;;;;;;2.70;1.20;;;23.50;47.10;;;;;;220850;1267;25286;-48
2022/04/11 04:36:30;;;;;;;3.90;1.30;;;23.60;47.30;;;;;;220912;1265;25383;-48
2022/04/11 04:41:35;;;;;;;2.10;1.20;;;23.60;47.30;;;;;;220841;1265;23968;-47
2022/04/11 04:46:42;;;;;;;2.10;1.10;;;23.70;46.80;;;;;;220897;1265;25547;-48
2022/04/11 04:51:56;;;;;;;3.20;1.00;;;23.70;46.70;;;;;;220638;1265;23929;-49
2022/04/11 04:57:01;;;;;;;2.30;1.00;;;23.80;46.80;;;;;;220654;1265;22696;-48
2022/04/11 05:02:05;;;;;;;3.20;1.10;;;23.80;46.30;;;;;;220700;1265;23399;-49
2022/04/11 05:07:10;;;;;;;2.60;1.10;;;23.80;46.30;;;;;;220659;1264;22599;-49
2022/04/11 05:12:14;;;;;;;3.70;1.30;;;23.70;46.50;;;;;;220631;1265;22531;-52
2022/04/11 05:17:19;;;;;;;3.50;1.10;;;23.60;46.70;;;;;;220880;1265;22663;-53
2022/04/11 05:22:23;;;;;;;1.70;0.90;;;23.60;46.90;;;;;;220359;1265;22548;-50
2022/04/11 05:27:27;;;;;;;2.40;1.30;;;23.50;46.90;;;;;;220305;1265;24367;-47
2022/04/11 05:32:35;;;;;;;2.80;1.10;;;23.50;47.00;;;;;;220771;1267;22569;-50
2022/04/11 05:37:39;;;;;;;1.90;1.10;;;23.40;47.10;;;;;;220798;1267;22807;-48
2022/04/11 05:42:44;;;;;;;2.40;1.10;;;23.30;47.20;;;;;;220799;1266;22558;-49
2022/04/11 05:47:54;;;;;;;2.00;0.90;;;23.30;47.20;;;;;;220566;1266;24758;-50
2022/04/11 05:52:58;;;;;;;3.60;1.30;;;23.30;47.20;;;;;;220547;1266;24422;-49
2022/04/11 05:58:02;;;;;;;3.70;1.30;;;23.30;47.90;;;;;;220677;1267;22818;-46
2022/04/11 06:03:10;;;;;;;2.80;1.20;;;23.30;47.20;;;;;;220345;1265;24279;-51
2022/04/11 06:08:15;;;;;;;2.20;1.00;;;23.40;46.90;;;;;;220974;1265;24390;-49
2022/04/11 06:13:22;;;;;;;2.70;0.90;;;23.70;46.50;;;;;;220818;1266;25455;-48
2022/04/11 06:18:30;;;;;;;1.20;0.70;;;23.80;46.40;;;;;;220372;1265;22582;-50
2022/04/11 06:23:34;;;;;;;2.60;1.20;;;23.80;46.40;;;;;;220753;1265;24094;-51
2022/04/11 06:28:41;;;;;;;1.50;0.90;;;23.90;46.50;;;;;;220394;1265;22534;-48
2022/04/11 06:33:45;;;;;;;3.30;1.10;;;24.00;46.10;;;;;;220907;1267;22629;-46
2022/04/11 06:38:57;;;;;;;2.20;1.00;;;24.00;46.20;;;;;;220374;1265;22627;-50
2022/04/11 06:44:08;;;;;;;2.00;1.00;;;23.80;46.50;;;;;;220184;1266;368175;-51
2022/04/11 06:49:25;;;;;;;2.70;1.10;;;23.60;47.00;;;;;;220531;1265;22541;-49
2022/04/11 06:54:34;;;;;;;2.00;0.90;;;23.50;47.30;;;;;;220365;1265;24795;-49
2022/04/11 06:59:37;;;;;;;5.70;1.20;;;23.40;47.50;;;;;;220856;1265;25394;-50
2022/04/11 07:04:41;;;;;;;3.60;1.00;;;23.30;48.20;;;;;;220824;1265;24413;-52
2022/04/11 07:09:46;;;;;;;3.70;0.90;;;23.30;48.00;;;;;;220589;1265;23204;-52
2022/04/11 07:14:51;;;;;;;1.90;0.90;;;23.30;48.50;;;;;;220265;1267;22682;-50
2022/04/11 07:19:55;;;;;;;4.90;1.00;;;23.20;48.20;;;;;;220399;1265;23938;-47
2022/04/11 07:25:03;;;;;;;3.80;1.40;;;23.30;48.70;;;;;;220834;1267;22540;-48
2022/04/11 07:30:07;;;;;;;8.30;1.40;;;23.20;48.40;;;;;;220742;1265;22550;-51
2022/04/11 07:35:11;;;;;;;5.00;1.70;;;23.10;48.90;;;;;;220809;1265;25268;-51
2022/04/11 07:40:14;;;;;;;4.80;1.40;;;23.00;49.60;;;;;;220691;1267;22572;-49
2022/04/11 07:45:19;;;;;;;5.60;1.30;;;23.10;50.00;;;;;;220346;1265;25637;-49
2022/04/11 07:50:23;;;;;;;3.00;1.50;;;23.10;50.20;;;;;;220340;1265;24019;-49
2022/04/11 07:55:27;;;;;;;3.60;1.70;;;23.00;50.50;;;;;;220542;1265;25264;-48
2022/04/11 08:00:31;;;;;;;4.00;1.40;;;23.00;50.60;;;;;;220585;1266;25682;-48
2022/04/11 08:05:35;;;;;;;9.30;1.60;;;23.00;50.10;;;;;;220615;1265;25218;-47
2022/04/11 08:10:39;;;;;;;5.70;1.50;;;22.90;50.20;;;;;;220677;1265;25349;-59
2022/04/11 08:15:43;;;;;;;6.30;1.80;;;23.00;50.50;;;;;;220509;1265;24211;-58
2022/04/11 08:20:46;;;;;;;7.60;1.40;;;23.00;50.20;;;;;;220720;1265;22696;-59
2022/04/11 08:25:52;;;;;;;7.90;1.60;;;22.90;50.20;;;;;;220446;1265;23015;-60
2022/04/11 08:30:56;;;;;;;8.50;1.80;;;22.90;50.20;;;;;;220829;1265;22698;-57
2022/04/11 08:36:03;;;;;;;9.60;1.70;;;22.90;50.00;;;;;;220639;1265;24371;-59
2022/04/11 08:41:16;;;;;;;4.70;1.30;;;22.90;50.60;;;;;;220770;1266;26524;-59
2022/04/11 08:46:20;;;;;;;13.90;2.10;;;23.00;51.30;;;;;;220689;1266;22543;-58
2022/04/11 08:51:25;;;;;;;10.20;1.40;;;23.00;50.80;;;;;;220338;1266;22742;-57
2022/04/11 08:56:29;;;;;;;5.80;1.30;;;22.90;50.80;;;;;;220993;1266;24109;-59
2022/04/11 09:01:34;;;;;;;4.50;1.50;;;22.90;50.50;;;;;;220502;1265;24412;-59
2022/04/11 09:06:38;;;;;;;6.40;1.50;;;22.90;50.40;;;;;;220402;1265;22574;-60
2022/04/11 09:11:52;;;;;;;3.70;1.20;;;23.00;50.30;;;;;;220946;1265;25158;-59
2022/04/11 09:16:56;;;;;;;6.60;1.20;;;22.90;50.20;;;;;;220338;1265;22629;-60
2022/04/11 09:22:03;;;;;;;5.50;1.60;;;22.90;50.30;;;;;;221185;1265;22530;-58
2022/04/11 09:27:23;;;;;;;5.60;1.30;;;22.90;50.50;;;;;;220454;1265;22608;-58
2022/04/11 09:32:27;;;;;;;7.00;1.20;;;22.90;50.30;;;;;;220951;1265;22807;-59
2022/04/11 09:37:30;;;;;;;3.60;1.60;;;22.90;50.20;;;;;;220399;1266;26638;-59
2022/04/11 09:42:34;;;;;;;6.20;1.10;;;22.90;50.30;;;;;;219977;1266;25398;-59
2022/04/11 09:47:58;;;;;;;3.40;1.20;;;22.90;50.00;;;;;;220347;1266;22721;-62
2022/04/11 09:53:21;;;;;;;2.90;1.30;;;22.80;50.00;;;;;;220602;1265;24219;-60
2022/04/11 09:58:25;;;;;;;5.50;1.00;;;22.80;50.00;;;;;;220161;1266;22607;-61
2022/04/11 10:03:29;;;;;;;5.90;1.40;;;22.80;49.80;;;;;;220364;1265;23522;-60
2022/04/11 10:08:37;;;;;;;7.40;1.40;;;22.80;50.00;;;;;;220582;1265;22613;-60
2022/04/11 10:13:41;;;;;;;8.40;1.30;;;22.70;50.00;;;;;;220611;1265;23928;-59
2022/04/11 10:18:46;;;;;;;4.60;1.50;;;22.70;50.20;;;;;;220790;1265;24310;-60
2022/04/11 10:24:06;;;;;;;4.50;0.90;;;22.70;49.90;;;;;;220759;1265;24403;-55
2022/04/11 10:29:33;;;;;;;9.70;1.50;;;22.80;49.70;;;;;;220580;1265;22544;-59
2022/04/11 10:34:49;;;;;;;8.50;1.20;;;22.80;49.70;;;;;;220354;1267;24445;-61
2022/04/11 10:40:14;;;;;;;8.40;2.20;;;22.70;49.50;;;;;;220127;1265;24408;-59
2022/04/11 10:45:34;;;;;;;11.00;1.50;;;22.80;49.60;;;;;;220484;1265;25364;-61
2022/04/11 10:50:41;;;;;;;11.20;1.50;;;22.80;49.20;;;;;;220187;1265;24261;-60
2022/04/11 10:56:05;;;;;;;4.00;1.60;;;22.90;49.40;;;;;;228141;1267;22537;-61
2022/04/11 11:01:10;;;;;;;7.00;1.50;;;22.90;49.40;;;;;;228080;1265;22320;-59
2022/04/11 11:06:19;;;;;;;6.80;1.50;;;22.80;49.60;;;;;;227751;1266;22439;-59
2022/04/11 11:11:27;;;;;;;4.90;1.30;;;22.90;49.80;;;;;;227966;1264;22454;-58
2022/04/11 11:16:36;;;;;;;7.00;1.50;;;22.90;49.80;;;;;;228142;1265;22444;-58
2022/04/11 11:21:55;;;;;;;7.40;2.80;;;22.90;49.60;;;;;;228018;1265;22382;-59
2022/04/11 11:27:04;;;;;;;7.40;1.90;;;22.90;49.60;;;;;;228074;1264;22410;-60
2022/04/11 11:32:09;;;;;;;10.20;2.50;;;22.80;49.50;;;;;;228037;1265;22388;-59
2022/04/11 11:37:16;;;;;;;9.50;2.50;;;22.90;49.60;;;;;;222656;1265;22611;-60
2022/04/11 11:42:20;;;;;;;9.40;2.50;;;22.90;49.40;;;;;;219367;1266;22613;-60
2022/04/11 11:47:28;;;;;;;8.50;2.90;;;22.90;49.30;;;;;;220195;1265;25309;-59
2022/04/11 11:52:41;;;;;;;16.20;2.80;;;22.90;50.20;;;;;;220608;1265;22588;-58
2022/04/11 11:58:01;;;;;;;8.80;2.50;;;22.90;51.30;;;;;;220518;1266;25308;-60
2022/04/11 12:08:35;;;;;;;13.20;2.60;;;22.90;50.60;;;;;;220469;1265;21801;-59
2022/04/11 12:13:38;;;;;;;7.50;2.30;;;22.90;50.10;;;;;;220218;1265;22800;-59
2022/04/11 12:18:57;;;;;;;11.70;3.20;;;22.90;50.50;;;;;;220650;1265;25400;-60
2022/04/11 12:24:07;;;;;;;12.50;3.00;;;22.90;49.70;;;;;;220722;1265;22689;-59
2022/04/11 12:29:15;;;;;;;13.20;3.00;;;22.90;50.10;;;;;;223619;1266;25339;-59
2022/04/11 12:34:18;;;;;;;8.80;3.10;;;22.90;50.00;;;;;;220394;1266;24166;-59
2022/04/11 12:39:25;;;;;;;10.90;3.10;;;22.90;52.40;;;;;;220248;1266;22547;-57
2022/04/11 12:44:36;;;;;;;10.60;3.20;;;22.90;52.30;;;;;;220216;1266;25332;-58
2022/04/11 12:49:43;;;;;;;;;;;22.90;51.80;;;;;;220510;1266;25218;-58
2022/04/11 12:54:49;;;;;;;7.10;2.50;;;22.80;51.70;;;;;;220541;1266;24261;-59
2022/04/11 12:59:54;;;;;;;7.60;2.90;;;22.80;51.50;;;;;;220422;1266;22728;-57
2022/04/11 13:05:00;;;;;;;14.80;2.80;;;22.80;51.30;;;;;;220545;1266;22554;-58
2022/04/11 13:10:25;;;;;;;6.70;2.60;;;22.70;51.00;;;;;;220188;1266;22730;-59
2022/04/11 13:15:30;;;;;;;7.20;2.60;;;22.70;50.90;;;;;;220152;1265;22528;-60
2022/04/11 13:20:34;;;;;;;8.60;2.60;;;22.80;50.50;;;;;;220449;1264;22528;-58
2022/04/11 13:25:38;;;;;;;10.10;3.20;;;22.80;50.50;;;;;;220634;1264;24296;-50
2022/04/11 13:30:57;;;;;;;10.60;3.20;;;22.80;50.10;;;;;;220369;1265;26533;-56
2022/04/11 13:36:01;;;;;;;7.50;2.20;;;22.80;50.70;;;;;;220183;1267;22627;-52
2022/04/11 13:41:06;;;;;;;13.20;2.40;;;22.90;50.00;;;;;;220545;1266;24033;-57
2022/04/11 13:46:11;;;;;;;9.00;2.60;;;22.90;50.30;;;;;;220413;1265;22747;-56
2022/04/11 13:51:16;;;;;;;7.70;2.40;;;22.90;49.90;;;;;;220118;1268;25364;-54
2022/04/11 13:56:20;;;;;;;6.30;2.20;;;22.90;49.80;;;;;;220885;1266;22576;-56
2022/04/11 14:01:27;;;;;;;9.00;2.10;;;22.90;49.70;;;;;;220927;1265;25245;-55
2022/04/11 14:06:33;;;;;;;10.80;2.50;;;22.90;49.50;;;;;;220427;1266;22584;-57
2022/04/11 14:11:46;;;;;;;10.30;2.30;;;22.90;49.30;;;;;;220695;1267;24298;-54
2022/04/11 14:17:01;;;;;;;8.00;2.30;;;22.90;49.20;;;;;;220319;1265;22764;-53
2022/04/11 14:22:07;;;;;;;9.60;2.40;;;22.90;49.20;;;;;;220582;1267;22526;-55
2022/04/11 14:27:14;;;;;;;8.90;2.80;;;22.90;49.10;;;;;;220664;1266;22538;-54
2022/04/11 14:32:18;;;;;;;7.10;1.90;;;22.90;49.00;;;;;;220886;1266;24298;-53
2022/04/11 14:37:21;;;;;;;5.30;2.30;;;22.90;48.90;;;;;;220618;1267;25380;-54
2022/04/11 14:42:26;;;;;;;6.10;2.60;;;22.90;49.10;;;;;;220234;1266;22545;-56
2022/04/11 14:47:38;;;;;;;7.30;1.80;;;22.80;48.80;;;;;;220571;1266;24220;-54
2022/04/11 14:53:15;;;;;;;12.60;2.30;;;22.80;48.70;;;;;;221691;1266;22599;-50
2022/04/11 14:58:21;;;;;;;5.20;2.30;;;22.80;49.20;;;;;;220811;1266;25491;-54
2022/04/11 15:03:27;;;;;;;6.40;2.40;;;22.70;49.30;;;;;;220308;1266;22553;-55
2022/04/11 15:08:32;;;;;;;13.40;2.70;;;22.80;51.50;;;;;;220667;1265;22708;-56
2022/04/11 15:13:38;;;;;;;7.50;2.60;;;22.80;51.80;;;;;;220502;1266;23986;-55
2022/04/11 15:18:42;;;;;;;8.00;2.70;;;22.80;52.50;;;;;;220442;1265;24455;-56
2022/04/11 15:23:46;;;;;;;9.80;2.10;;;22.80;51.00;;;;;;220140;1265;24217;-52
2022/04/11 15:28:56;;;;;;;7.50;2.20;;;22.80;50.30;;;;;;220618;1265;24286;-53
2022/04/11 15:34:08;;;;;;;7.00;2.20;;;22.80;51.40;;;;;;220659;1267;22762;-55
2022/04/11 15:39:30;;;;;;;11.80;2.10;;;22.70;51.20;;;;;;220612;1264;25491;-52
2022/04/11 15:45:21;;;;;;;8.10;2.20;;;22.80;51.40;;;;;;220043;1266;22731;-51
2022/04/11 15:50:47;;;;;;;10.90;2.10;;;22.80;51.30;;;;;;220405;1267;24276;-55
2022/04/11 15:56:43;;;;;;;11.60;2.60;;;22.70;51.00;;;;;;220144;1265;22549;-59
2022/04/11 16:02:02;;;;;;;8.10;2.30;;;22.70;51.10;;;;;;220722;1266;24280;-60
2022/04/11 16:07:17;;;;;;;10.30;2.70;;;22.60;51.40;;;;;;220407;1266;24269;-55
2022/04/11 16:12:50;;;;;;;5.80;2.50;;;22.50;51.10;;;;;;220590;1266;23900;-54
2022/04/11 16:18:13;;;;;;;7.20;2.40;;;22.60;51.00;;;;;;220555;1266;22546;-55
2022/04/11 16:23:30;;;;;;;4.80;1.70;;;22.60;50.60;;;;;;220225;1266;24419;-49
2022/04/11 16:29:06;;;;;;;8.40;2.20;;;22.50;50.30;;;;;;220233;1266;22564;-55
2022/04/11 16:35:03;;;;;;;;;;;;;;;;;;;;;
2022/04/11 16:40:38;;;;;;;12.30;2.40;;;22.50;49.30;;;;;;220470;1267;24333;-53
2022/04/11 16:46:09;;;;;;;6.70;2.20;;;22.40;49.20;;;;;;220519;1267;24495;-54
2022/04/11 16:52:00;;;;;;;8.70;2.10;;;22.40;48.60;;;;;;220041;1267;22554;-54
2022/04/11 16:57:37;;;;;;;10.90;1.80;;;22.40;48.80;;;;;;220285;1267;24277;-53
2022/04/11 17:03:05;;;;;;;7.80;2.40;;;22.70;48.00;;;;;;220438;1267;24217;-53
2022/04/11 17:08:45;;;;;;;15.20;2.10;;;22.90;47.40;;;;;;220620;1265;23063;-49
2022/04/11 17:14:28;;;;;;;8.00;1.70;;;23.20;47.30;;;;;;220314;1265;22829;-57
2022/04/11 17:20:07;;;;;;;12.90;2.30;;;23.30;46.90;;;;;;220564;1265;22701;-48
2022/04/11 17:25:28;;;;;;;7.90;2.10;;;23.50;46.20;;;;;;220013;1266;22596;-52
2022/04/11 17:31:33;;;;;;;6.10;1.60;;;23.60;45.90;;;;;;220144;1265;24264;-49
2022/04/11 17:37:05;;;;;;;10.00;1.80;;;23.70;45.70;;;;;;220357;1267;23065;-50
2022/04/11 17:42:49;;;;;;;9.30;2.20;;;23.80;45.70;;;;;;220341;1267;25114;-49
2022/04/11 17:48:09;;;;;;;7.40;2.30;;;23.90;45.70;;;;;;220255;1266;22530;-61
2022/04/11 17:53:42;;;;;;;11.40;2.10;;;23.90;45.10;;;;;;220213;1266;24285;-53
2022/04/11 17:59:34;;;;;;;;;;;;;;;;;;;;;
2022/04/11 18:05:08;;;;;;;17.50;2.60;;;23.80;45.20;;;;;;220460;1265;22546;-52
2022/04/11 18:10:26;;;;;;;15.10;2.00;;;23.70;44.90;;;;;;220715;1266;22686;-57
2022/04/11 18:15:50;;;;;;;7.60;2.30;;;23.70;45.20;;;;;;220839;1265;22548;-49
2022/04/11 18:21:26;;;;;;;10.40;3.70;;;23.60;44.60;;;;;;220640;1266;24299;-52
2022/04/11 18:26:36;;;;;;;12.80;3.70;;;23.60;44.80;;;;;;220624;1265;24224;-50
2022/04/11 18:31:51;;;;;;;10.50;4.20;;;23.50;45.80;;;;;;220548;1265;22548;-54
2022/04/11 18:37:20;;;;;;;11.60;3.70;;;23.40;46.80;;;;;;220416;1265;22748;-53
2022/04/11 18:43:08;;;;;;;10.90;3.70;;;23.40;47.30;;;;;;220204;1266;454521;-53
2022/04/11 18:48:39;;;;;;;9.20;4.00;;;23.20;48.00;;;;;;220554;1266;23195;-50
2022/04/11 18:53:54;;;;;;;9.90;4.30;;;23.20;48.70;;;;;;220939;1267;22663;-49
2022/04/11 18:59:30;;;;;;;12.00;4.10;;;23.20;49.00;;;;;;220725;1266;22528;-52
2022/04/11 19:04:49;;;;;;;13.80;4.30;;;23.20;48.60;;;;;;220818;1266;22553;-52
2022/04/11 19:10:48;;;;;;;9.70;4.30;;;23.10;48.00;;;;;;220509;1267;22612;-52
2022/04/11 19:16:49;;;;;;;13.60;5.10;;;23.00;47.50;;;;;;220698;1266;22766;-52
2022/04/11 19:22:25;;;;;;;13.50;5.50;;;22.90;49.70;;;;;;220666;1267;24283;-50
2022/04/11 19:28:17;;;;;;;12.10;4.80;;;22.90;49.10;;;;;;220355;1267;24206;-50
2022/04/11 19:33:48;;;;;;;22.40;6.30;;;22.90;48.30;;;;;;220474;1265;24365;-50
2022/04/11 19:39:08;;;;;;;14.50;6.10;;;22.80;50.70;;;;;;221031;1265;25145;-52
2022/04/11 19:44:26;;;;;;;12.40;5.70;;;22.80;50.40;;;;;;221049;1265;25293;-51
2022/04/11 19:49:50;;;;;;;17.10;6.00;;;22.80;50.40;;;;;;220793;1266;22558;-50
2022/04/11 19:55:22;;;;;;;16.50;5.90;;;22.80;50.40;;;;;;220670;1265;22552;-50
2022/04/11 20:00:47;;;;;;;12.50;5.90;;;22.70;50.50;;;;;;220883;1267;22619;-52
2022/04/11 20:06:43;;;;;;;12.10;6.00;;;22.60;50.60;;;;;;220410;1265;24254;-52
2022/04/11 20:12:17;;;;;;;14.30;5.90;;;22.60;50.90;;;;;;220790;1265;24316;-52
2022/04/11 20:18:05;;;;;;;11.50;6.20;;;22.60;50.60;;;;;;220575;1269;23528;-51
2022/04/11 20:23:34;;;;;;;16.70;6.70;;;22.60;50.70;;;;;;220468;1265;22570;-49
2022/04/11 20:29:57;;;;;;;18.50;7.10;;;22.50;50.70;;;;;;220549;1270;25466;-48
2022/04/11 20:36:10;;;;;;;16.10;6.80;;;22.50;51.00;;;;;;220190;1266;22562;-49
2022/04/11 20:41:51;;;;;;;15.90;7.50;;;22.50;50.60;;;;;;220093;1267;22568;-48
2022/04/11 20:47:38;;;;;;;13.90;7.50;;;22.40;50.80;;;;;;220304;1265;22544;-47
2022/04/11 20:53:01;;;;;;;14.00;7.80;;;22.30;50.80;;;;;;220462;1265;24376;-48
2022/04/11 20:58:17;;;;;;;16.30;8.90;;;22.30;50.70;;;;;;220477;1265;22890;-54
2022/04/11 21:03:46;;;;;;;17.90;8.00;;;22.30;50.90;;;;;;220656;1265;22557;-54
2022/04/11 21:09:06;;;;;;;14.60;8.50;;;22.50;50.30;;;;;;220589;1265;25285;-52
2022/04/11 21:15:01;;;;;;;14.80;8.30;;;22.90;49.50;;;;;;220326;1265;25416;-56
2022/04/11 21:20:50;;;;;;;;;;;23.20;48.90;;;;;;219591;1271;22983;-53
2022/04/11 21:26:20;;;;;;;14.20;8.00;;;23.40;48.30;;;;;;219835;1271;24329;-55
2022/04/11 21:32:05;;;;;;;18.70;8.60;;;23.60;48.30;;;;;;219733;1271;25342;-52
2022/04/11 21:37:34;;;;;;;14.20;8.70;;;23.70;48.00;;;;;;219665;1271;24429;-55
2022/04/11 21:43:57;;;;;;;;;;;;;;;;;;;;;
2022/04/11 21:49:52;;;;;;;14.60;9.00;;;23.90;47.20;;;;;;220070;1268;24295;-57
2022/04/11 21:56:23;;;;;;;16.90;9.30;;;24.00;46.90;;;;;;220666;1268;25301;-57
2022/04/11 22:03:20;;;;;;;;;;;;;;;;;;;;;
2022/04/11 22:09:21;;;;;;;16.30;8.80;;;24.10;46.90;;;;;;220059;1270;24565;-57
2022/04/11 22:15:30;;;;;;;;;;;;;;;;;;;;;
2022/04/11 22:21:56;;;;;;;18.40;9.80;;;24.00;47.20;;;;;;220589;1268;24215;-58
2022/04/11 22:28:08;;;;;;;16.50;9.40;;;23.90;47.30;;;;;;220803;1265;24401;-55
2022/04/11 22:33:55;;;;;;;17.10;10.60;;;23.70;47.80;;;;;;219573;1274;25301;-55
2022/04/11 22:40:06;;;;;;;19.00;10.60;;;23.50;47.70;;;;;;220557;1265;24382;-54
2022/04/11 22:46:14;;;;;;;23.20;11.20;;;23.40;48.70;;;;;;220590;1265;24277;-54
2022/04/11 22:57:56;;;;;;;23.50;10.50;;;23.20;51.40;;;;;;219979;1271;24552;-59
2022/04/11 23:03:42;;;;;;;20.80;10.20;;;23.20;51.50;;;;;;220164;1271;24294;-57
2022/04/11 23:08:53;;;;;;;26.00;11.30;;;23.10;50.90;;;;;;220490;1271;25356;-59
2022/04/11 23:14:10;;;;;;;20.70;11.10;;;23.00;51.20;;;;;;220260;1270;22839;-59
2022/04/11 23:19:18;;;;;;;21.30;11.30;;;23.00;50.80;;;;;;220185;1269;25115;-58
2022/04/11 23:24:34;;;;;;;17.00;11.30;;;22.90;51.00;;;;;;220825;1265;22550;-57
2022/04/11 23:29:52;;;;;;;20.70;11.60;;;22.90;50.80;;;;;;220987;1267;24258;-58
2022/04/11 23:35:08;;;;;;;18.80;11.70;;;22.80;50.70;;;;;;220858;1265;25306;-58
2022/04/11 23:45:52;;;;;;;20.00;11.80;;;22.70;50.70;;;;;;220622;1265;25235;-56
2022/04/11 23:51:19;;;;;;;23.10;12.60;;;22.70;50.60;;;;;;220637;1265;23585;-57
2022/04/11 23:57:00;;;;;;;19.50;12.10;;;22.60;50.60;;;;;;220587;1265;27640;-57
